Aviation Digital Data Service (ADDS)

Output produced by METARs form (0321 UTC 18 June 2019)
found at http://www.aviationweather.gov/metar/data/
 
Forecast for: RJFO (OITA AIRPORT , JP)
Text: TAF RJFO 172306Z 1800/1906 10005KT 9999 FEW030
Forecast period: 0000 to 0900 UTC 18 June 2019
Forecast type: FROM: standard forecast or significant change
Winds: from the E (100 degrees) at 6 MPH (5 knots; 2.6 m/s)
Visibility: 6 or more miles 10+ km)
Ceiling: at least 12,000 feet AGL
Clouds: few clouds at 3000 feet AGL
Weather: no significant weather forecast for this period
Text: BECMG 1809/1811 28005KT
Forecast period: 0900 to 2100 UTC 18 June 2019
Forecast type: BECOMING: Conditions expected to become as follows by 1100 UTC 18 June 2019
Winds: from the W (280 degrees) at 6 MPH (5 knots; 2.6 m/s)
Visibility: 6 or more miles 10+ km)
Ceiling: at least 12,000 feet AGL
Clouds: few clouds at 3000 feet AGL
Weather: no significant weather forecast for this period
Text: BECMG 1821/1900 12004KT
Forecast period: 2100 UTC 18 June 2019 to 0600 UTC 19 June 2019
Forecast type: BECOMING: Conditions expected to become as follows by 0000 UTC 19 June 2019
Winds: from the ESE (120 degrees) at 5 MPH (4 knots; 2.1 m/s)
Visibility: 6 or more miles 10+ km)
Ceiling: at least 12,000 feet AGL
Clouds: few clouds at 3000 feet AGL
Weather: no significant weather forecast for this period